This is the latest recevied weather packets stored in our database for station/object WC4PEM-8. If no packets are shown the sender has not sent any weather packets the latest 1 day(s).
| Time | Temp. | Humidity | Pressure | Rain* | Wind** | Luminosity | Snow |
|---|---|---|---|---|---|---|---|
| 1778079306 | 27.22° C | 69% | 1017.1 hPa | 0 mm | - | - | - |
| 1778077334 | 25.56° C | 79% | 1017.1 hPa | 0 mm | - | - | - |
| 1778077170 | 25.56° C | 79% | 1017.1 hPa | 0 mm | - | - | - |
| 1778077088 | 25.56° C | 79% | 1017.1 hPa | 0 mm | - | - | - |
| 1778076789 | 26.67° C | 73% | 1017.2 hPa | 0 mm | - | - | - |
| 1778076186 | 26.11° C | 75% | 1017.3 hPa | 0 mm | - | - | - |
| 1778076054 | 26.11° C | 75% | 1017.3 hPa | 0 mm | - | - | - |
| 1778075497 | 25.56° C | 79% | 1017.1 hPa | 0 mm | - | - | - |
| 1778074042 | 24.44° C | 81% | 1017.1 hPa | 0 mm | - | - | - |
| 1778073688 | 24.44° C | 81% | 1017.1 hPa | 0 mm | - | - | - |
| 1778072830 | 23.89° C | 83% | 1016.8 hPa | 0 mm | - | - | - |
| 1778072744 | 23.89° C | 83% | 1016.8 hPa | 0 mm | - | - | - |
| 1778072498 | 23.89° C | 83% | 1016.8 hPa | 0 mm | - | - | - |
| 1778069520 | 21.11° C | 89% | 1016.3 hPa | 0 mm | - | - | - |
| 1778066755 | 20° C | 91% | 1016.1 hPa | 0 mm | - | - | - |
| 1778066155 | 19.44° C | 91% | 1016.1 hPa | 0 mm | - | - | - |
| 1778065555 | 19.44° C | 90% | 1016 hPa | 0 mm | - | - | - |
| 1778065255 | 19.44° C | 90% | 1016 hPa | 0 mm | - | - | - |
| 1778064955 | 19.44° C | 90% | 1015.9 hPa | 0 mm | - | - | - |
| 1778064655 | 19.44° C | 90% | 1015.7 hPa | 0 mm | - | - | - |
| 1778064355 | 19.44° C | 90% | 1015.7 hPa | 0 mm | - | - | - |
| 1778064195 | 19.44° C | 90% | 1015.5 hPa | 0 mm | - | - | - |
| 1778064055 | 19.44° C | 90% | 1015.6 hPa | 0 mm | - | - | - |
| 1778063755 | 19.44° C | 90% | 1015.6 hPa | 0 mm | - | - | - |
| 1778063455 | 19.44° C | 90% | 1015.5 hPa | 0 mm | - | - | - |
* Rain latest hour (hover to see other rain measurements)
** Current wind speed in m/s (hover to see current wind gust speed)